createdAt,value
2022-12-22T00:02:38.225Z,100.00
2022-12-22T00:05:39.891Z,100.00
2022-12-22T00:08:27.079Z,100.00
2022-12-22T00:11:15.216Z,100.00
2022-12-22T00:14:03.639Z,100.00
2022-12-22T00:16:55.813Z,100.00
2022-12-22T00:19:42.402Z,100.00
2022-12-22T00:22:35.706Z,100.00
2022-12-22T00:25:22.200Z,100.00
2022-12-22T00:28:08.589Z,100.00
2022-12-22T00:30:56.393Z,100.00
2022-12-22T00:33:43.155Z,100.00
2022-12-22T00:36:31.249Z,100.00
2022-12-22T00:39:17.551Z,100.00
2022-12-22T00:42:03.764Z,100.00
2022-12-22T00:44:50.577Z,100.00
2022-12-22T00:47:46.785Z,100.00
2022-12-22T00:50:34.322Z,100.00
2022-12-22T00:53:21.815Z,100.00
2022-12-22T00:56:08.375Z,100.00
2022-12-22T00:58:55.367Z,100.00
2022-12-22T01:01:42.475Z,100.00
2022-12-22T01:04:30.240Z,100.00
2022-12-22T01:07:17.177Z,100.00
2022-12-22T01:10:08.589Z,100.00
2022-12-22T01:12:58.938Z,100.00
2022-12-22T01:15:48.639Z,100.00
2022-12-22T01:18:35.552Z,100.00
2022-12-22T01:21:23.067Z,100.00
2022-12-22T01:24:09.319Z,100.00
2022-12-22T01:26:55.707Z,100.00
2022-12-22T01:29:42.164Z,100.00
2022-12-22T01:32:37.153Z,100.00
2022-12-22T01:35:23.920Z,100.00
2022-12-22T01:38:10.115Z,100.00
2022-12-22T01:40:56.724Z,100.00
2022-12-22T01:43:47.123Z,100.00
2022-12-22T01:46:43.000Z,100.00
2022-12-22T01:49:37.296Z,100.00
2022-12-22T01:52:24.929Z,100.00
2022-12-22T01:55:13.597Z,100.00
2022-12-22T01:58:00.701Z,100.00
2022-12-22T02:00:47.064Z,100.00
2022-12-22T02:03:40.046Z,100.00
2022-12-22T02:06:46.736Z,100.00
2022-12-22T02:10:04.692Z,100.00
2022-12-22T02:13:20.267Z,100.00
2022-12-22T02:16:20.869Z,100.00
2022-12-22T02:19:14.989Z,100.00
2022-12-22T02:22:34.609Z,100.00
2022-12-22T02:25:34.065Z,100.00
2022-12-22T02:28:22.670Z,100.00
2022-12-22T02:31:10.693Z,100.00
2022-12-22T02:33:57.522Z,100.00
2022-12-22T02:37:09.744Z,100.00
2022-12-22T02:40:21.684Z,100.00
2022-12-22T02:43:27.999Z,100.00
2022-12-22T02:46:45.373Z,100.00
2022-12-22T02:49:46.241Z,100.00
2022-12-22T02:52:40.843Z,100.00
2022-12-22T02:55:27.337Z,100.00
2022-12-22T02:58:17.344Z,100.00
2022-12-22T03:01:04.472Z,100.00
2022-12-22T03:03:51.030Z,100.00
2022-12-22T03:06:37.614Z,100.00
2022-12-22T03:09:24.127Z,100.00
2022-12-22T03:12:10.294Z,100.00
2022-12-22T03:14:56.794Z,100.00
2022-12-22T03:17:42.866Z,100.00
2022-12-22T03:20:29.781Z,100.00
2022-12-22T03:23:15.942Z,100.00
2022-12-22T03:25:53.756Z,100.00
2022-12-22T03:28:27.761Z,100.00
2022-12-22T03:31:01.647Z,100.00
2022-12-22T03:33:30.821Z,100.00
2022-12-22T03:35:59.996Z,100.00
2022-12-22T03:38:28.199Z,100.00
2022-12-22T03:40:56.644Z,100.00
2022-12-22T03:43:42.837Z,100.00
2022-12-22T03:46:31.465Z,100.00
2022-12-22T03:49:10.022Z,100.00
2022-12-22T03:51:44.307Z,100.00
2022-12-22T03:54:13.014Z,100.00
2022-12-22T03:56:41.824Z,100.00
2022-12-22T03:59:09.901Z,100.00
2022-12-22T04:01:41.903Z,100.00
2022-12-22T04:04:10.614Z,100.00
2022-12-22T04:06:38.778Z,100.00
2022-12-22T04:09:06.500Z,100.00
2022-12-22T04:11:53.615Z,100.00
2022-12-22T04:14:24.469Z,100.00
2022-12-22T04:16:56.052Z,100.00
2022-12-22T04:19:25.207Z,100.00
2022-12-22T04:21:54.119Z,100.00
2022-12-22T04:24:22.355Z,100.00
2022-12-22T04:26:51.268Z,100.00
2022-12-22T04:29:18.934Z,100.00
2022-12-22T04:31:46.894Z,100.00
2022-12-22T04:34:14.495Z,100.00
2022-12-22T04:36:42.582Z,100.00
2022-12-22T04:39:10.457Z,100.00
2022-12-22T04:41:38.616Z,100.00
2022-12-22T04:44:06.495Z,100.00
2022-12-22T04:46:34.537Z,100.00
2022-12-22T04:49:02.159Z,100.00
2022-12-22T04:51:30.073Z,100.00
2022-12-22T04:53:58.101Z,100.00
2022-12-22T04:56:26.048Z,100.00
2022-12-22T04:58:53.763Z,100.00
2022-12-22T05:01:21.854Z,100.00
2022-12-22T05:03:49.774Z,100.00
2022-12-22T05:06:17.744Z,100.00
2022-12-22T05:08:45.405Z,100.00
2022-12-22T05:11:13.694Z,100.00
2022-12-22T05:13:41.339Z,100.00
2022-12-22T05:16:15.570Z,100.00
2022-12-22T05:18:44.169Z,100.00
2022-12-22T05:21:21.134Z,100.00
2022-12-22T05:23:49.883Z,100.00
2022-12-22T05:26:19.133Z,100.00
2022-12-22T05:28:48.061Z,100.00
2022-12-22T05:31:19.023Z,100.00
2022-12-22T05:33:47.610Z,100.00
2022-12-22T05:36:15.927Z,100.00
2022-12-22T05:38:44.811Z,100.00
2022-12-22T05:41:13.103Z,100.00
2022-12-22T05:43:40.855Z,100.00
2022-12-22T05:46:11.932Z,100.00
2022-12-22T05:48:40.362Z,100.00
2022-12-22T05:51:10.100Z,100.00
2022-12-22T05:53:38.994Z,100.00
2022-12-22T05:56:07.961Z,100.00
2022-12-22T05:58:38.265Z,100.00
2022-12-22T06:01:06.328Z,100.00
2022-12-22T06:03:34.281Z,100.00
2022-12-22T06:06:02.449Z,100.00
2022-12-22T06:08:30.108Z,100.00
2022-12-22T06:10:59.638Z,100.00
2022-12-22T06:13:27.612Z,100.00
2022-12-22T06:15:55.712Z,100.00
2022-12-22T06:18:23.379Z,100.00
2022-12-22T06:20:55.004Z,100.00
2022-12-22T06:23:23.196Z,100.00
2022-12-22T06:26:02.328Z,100.00
2022-12-22T06:28:31.213Z,100.00
2022-12-22T06:30:59.223Z,100.00
2022-12-22T06:33:27.021Z,100.00
2022-12-22T06:35:58.862Z,100.00
2022-12-22T06:38:28.545Z,100.00
2022-12-22T06:40:56.855Z,100.00
2022-12-22T06:43:25.046Z,100.00
2022-12-22T06:45:53.799Z,100.00
2022-12-22T06:48:21.845Z,100.00
2022-12-22T06:50:49.823Z,100.00
2022-12-22T06:53:17.499Z,100.00
2022-12-22T06:55:46.266Z,100.00
2022-12-22T06:58:13.972Z,100.00
2022-12-22T07:00:43.182Z,100.00
2022-12-22T07:03:10.966Z,100.00
2022-12-22T07:05:38.995Z,100.00
2022-12-22T07:08:09.178Z,100.00
2022-12-22T07:10:56.352Z,100.00
2022-12-22T07:13:28.724Z,100.00
2022-12-22T07:16:01.205Z,100.00
2022-12-22T07:18:35.314Z,100.00
2022-12-22T07:21:07.881Z,100.00
2022-12-22T07:23:36.361Z,100.00
2022-12-22T07:26:07.407Z,100.00
2022-12-22T07:28:37.084Z,100.00
2022-12-22T07:31:05.891Z,100.00
2022-12-22T07:33:33.955Z,100.00
2022-12-22T07:36:13.666Z,100.00
2022-12-22T07:38:45.628Z,100.00
2022-12-22T07:41:34.224Z,100.00
2022-12-22T07:44:02.396Z,100.00
2022-12-22T07:46:34.434Z,100.00
2022-12-22T07:49:20.845Z,100.00
2022-12-22T07:51:49.409Z,99.93
2022-12-22T07:54:18.271Z,100.00
2022-12-22T07:56:47.217Z,100.00
2022-12-22T07:59:15.730Z,100.00
2022-12-22T08:01:45.736Z,100.00
2022-12-22T08:04:14.811Z,99.17
2022-12-22T08:06:43.071Z,98.87
2022-12-22T08:09:15.763Z,98.37
2022-12-22T08:11:43.976Z,97.93
2022-12-22T08:14:11.731Z,98.26
2022-12-22T08:16:39.852Z,97.95
2022-12-22T08:19:07.682Z,97.42
2022-12-22T08:21:35.595Z,96.92
2022-12-22T08:24:03.404Z,96.32
2022-12-22T08:26:40.712Z,95.99
2022-12-22T08:29:18.436Z,95.38
2022-12-22T08:31:47.026Z,94.87
2022-12-22T08:34:16.492Z,94.22
2022-12-22T08:36:49.223Z,93.01
2022-12-22T08:39:19.744Z,91.98
2022-12-22T08:41:50.995Z,91.10
2022-12-22T08:44:27.801Z,91.06
2022-12-22T08:46:58.266Z,90.58
2022-12-22T08:49:26.912Z,90.20
2022-12-22T08:51:55.050Z,89.95
2022-12-22T08:54:23.160Z,90.05
2022-12-22T08:56:51.328Z,89.58
2022-12-22T08:59:19.188Z,88.67
2022-12-22T09:01:50.718Z,88.40
2022-12-22T09:04:21.646Z,88.26
2022-12-22T09:06:52.346Z,88.15
2022-12-22T09:09:21.703Z,88.47
2022-12-22T09:11:49.762Z,87.48
2022-12-22T09:14:17.986Z,87.00
2022-12-22T09:16:45.914Z,87.07
2022-12-22T09:19:13.831Z,87.85
2022-12-22T09:21:42.096Z,88.16
2022-12-22T09:24:09.835Z,89.18
2022-12-22T09:26:37.757Z,89.94
2022-12-22T09:29:05.857Z,90.36
2022-12-22T09:31:34.375Z,90.37
2022-12-22T09:34:02.308Z,91.08
2022-12-22T09:36:32.043Z,91.33
2022-12-22T09:42:21.056Z,90.84
2022-12-22T09:44:51.875Z,90.82
2022-12-22T09:47:40.681Z,91.05
2022-12-22T09:50:15.958Z,90.81
2022-12-22T09:52:48.604Z,90.21
2022-12-22T09:55:24.925Z,89.36
2022-12-22T09:57:56.835Z,88.34
2022-12-22T10:00:27.172Z,88.28
2022-12-22T10:03:19.987Z,89.14
2022-12-22T10:05:51.452Z,89.60
2022-12-22T10:08:30.034Z,89.04
2022-12-22T10:10:58.362Z,88.06
2022-12-22T10:13:26.128Z,87.56
2022-12-22T10:15:55.692Z,87.31
2022-12-22T10:18:26.161Z,86.61
2022-12-22T10:21:14.602Z,86.25
2022-12-22T10:23:46.427Z,85.93
2022-12-22T10:26:30.199Z,86.82
2022-12-22T10:29:07.816Z,86.34
2022-12-22T10:31:39.823Z,86.24
2022-12-22T10:34:16.721Z,86.40
2022-12-22T10:36:49.854Z,86.49
2022-12-22T10:39:27.142Z,86.60
2022-12-22T10:42:01.005Z,86.83
2022-12-22T10:44:37.184Z,86.56
2022-12-22T10:47:21.606Z,86.21
2022-12-22T10:52:32.861Z,87.48
2022-12-22T10:55:25.900Z,87.66
2022-12-22T10:58:10.472Z,87.45
2022-12-22T11:00:39.137Z,87.09
2022-12-22T11:03:11.942Z,87.38
2022-12-22T11:05:40.093Z,87.44
2022-12-22T11:08:21.272Z,88.32
2022-12-22T11:11:00.294Z,88.37
2022-12-22T11:13:49.710Z,87.71
2022-12-22T11:16:26.783Z,87.75
2022-12-22T11:19:15.810Z,87.22
2022-12-22T11:22:10.984Z,87.67
2022-12-22T11:25:16.374Z,87.94
2022-12-22T11:27:46.685Z,87.97
2022-12-22T11:30:21.774Z,87.77
2022-12-22T11:33:24.166Z,88.11
2022-12-22T11:36:09.773Z,87.68
2022-12-22T11:38:49.432Z,87.40
2022-12-22T11:41:19.985Z,86.80
2022-12-22T11:44:12.186Z,86.45
2022-12-22T11:46:59.472Z,86.07
2022-12-22T11:49:52.986Z,86.14
2022-12-22T12:01:33.611Z,87.91
2022-12-22T12:04:27.220Z,88.16
2022-12-22T12:07:13.577Z,88.51
2022-12-22T12:10:08.372Z,88.91
2022-12-22T12:13:03.738Z,89.21
2022-12-22T12:18:53.683Z,90.25
2022-12-22T12:21:30.619Z,90.66
2022-12-22T12:24:16.581Z,90.61
2022-12-22T12:26:51.186Z,90.73
2022-12-22T12:32:58.711Z,91.52
2022-12-22T12:35:29.634Z,91.93
2022-12-22T12:38:06.342Z,92.06
2022-12-22T12:40:43.106Z,91.74
2022-12-22T12:43:16.425Z,91.98
2022-12-22T12:45:47.697Z,92.39
2022-12-22T12:48:24.636Z,92.72
2022-12-22T12:50:54.065Z,92.97
2022-12-22T12:53:25.115Z,93.55
2022-12-22T12:55:53.011Z,94.26
2022-12-22T12:58:39.001Z,94.43
2022-12-22T13:01:27.226Z,94.33
2022-12-22T13:04:04.704Z,94.28
2022-12-22T13:06:53.537Z,94.01
2022-12-22T13:09:50.083Z,93.06
2022-12-22T13:12:34.837Z,93.15
2022-12-22T13:17:41.830Z,92.83
2022-12-22T13:20:18.401Z,93.40
2022-12-22T13:22:46.589Z,93.46
2022-12-22T13:25:16.903Z,94.00
2022-12-22T13:27:45.051Z,94.45
2022-12-22T13:30:21.880Z,94.59
2022-12-22T13:32:51.052Z,94.73
2022-12-22T13:35:33.937Z,94.89
2022-12-22T13:38:03.976Z,95.02
2022-12-22T13:40:40.945Z,95.10
2022-12-22T13:43:15.505Z,95.00
2022-12-22T13:45:57.878Z,95.30
2022-12-22T13:48:29.068Z,95.78
2022-12-22T13:51:03.477Z,95.55
2022-12-22T13:56:37.089Z,95.08
2022-12-22T13:59:13.694Z,95.36
2022-12-22T14:01:56.971Z,95.46
2022-12-22T14:04:25.104Z,95.95
2022-12-22T14:06:54.814Z,96.38
2022-12-22T14:09:23.886Z,96.81
2022-12-22T14:12:07.629Z,97.04
2022-12-22T14:14:42.083Z,97.12
2022-12-22T14:17:37.127Z,97.21
2022-12-22T14:20:17.172Z,97.21
2022-12-22T14:22:54.697Z,97.24
2022-12-22T14:25:28.461Z,97.98
2022-12-22T14:27:57.339Z,98.15
2022-12-22T14:30:37.950Z,98.25
2022-12-22T14:33:18.494Z,97.87
2022-12-22T14:35:46.119Z,97.36
2022-12-22T14:38:16.839Z,97.39
2022-12-22T14:40:45.464Z,97.86
2022-12-22T14:43:28.440Z,98.20
2022-12-22T14:46:11.101Z,98.15
2022-12-22T14:48:45.591Z,98.73
2022-12-22T14:51:20.552Z,98.52
2022-12-22T14:53:58.429Z,98.71
2022-12-22T14:56:28.116Z,99.34
2022-12-22T14:59:22.685Z,99.82
2022-12-22T15:02:19.554Z,100.00
2022-12-22T15:04:48.031Z,100.00
2022-12-22T15:08:02.654Z,100.00
2022-12-22T15:10:17.258Z,100.00
2022-12-22T15:12:47.482Z,100.00
2022-12-22T15:15:18.565Z,100.00
2022-12-22T15:17:50.212Z,100.00
2022-12-22T15:20:24.005Z,100.00
2022-12-22T15:22:52.614Z,100.00
2022-12-22T15:25:23.200Z,100.00
2022-12-22T15:27:52.161Z,100.00
2022-12-22T15:30:28.695Z,100.00
2022-12-22T15:32:57.265Z,100.00
2022-12-22T15:35:33.179Z,100.00
2022-12-22T15:38:01.738Z,100.00
2022-12-22T15:40:30.130Z,100.00
2022-12-22T15:42:57.969Z,100.00
2022-12-22T15:45:26.081Z,100.00
2022-12-22T15:47:55.191Z,100.00
2022-12-22T15:50:28.551Z,100.00
2022-12-22T15:52:59.713Z,100.00
2022-12-22T15:55:28.067Z,100.00
2022-12-22T15:57:59.027Z,100.00
2022-12-22T16:00:27.082Z,100.00
2022-12-22T16:02:54.890Z,100.00
2022-12-22T16:05:23.224Z,100.00
2022-12-22T16:07:50.939Z,100.00
2022-12-22T16:10:28.252Z,100.00
2022-12-22T16:13:01.676Z,100.00
2022-12-22T16:15:32.072Z,100.00
2022-12-22T16:18:01.475Z,100.00
2022-12-22T16:20:37.408Z,100.00
2022-12-22T16:23:07.998Z,100.00
2022-12-22T16:25:39.047Z,100.00
2022-12-22T16:28:07.377Z,100.00
2022-12-22T16:30:35.399Z,100.00
2022-12-22T16:33:03.121Z,100.00
2022-12-22T16:35:33.073Z,100.00
2022-12-22T16:38:01.132Z,100.00
2022-12-22T16:40:31.336Z,100.00
2022-12-22T16:45:49.210Z,100.00
2022-12-22T16:48:30.075Z,100.00
2022-12-22T16:50:58.487Z,100.00
2022-12-22T16:53:26.133Z,100.00
2022-12-22T16:55:54.146Z,100.00
2022-12-22T16:58:21.768Z,100.00
2022-12-22T17:00:49.765Z,100.00
2022-12-22T17:03:28.530Z,100.00
2022-12-22T17:06:03.319Z,100.00
2022-12-22T17:08:36.442Z,100.00
2022-12-22T17:11:11.134Z,100.00
2022-12-22T17:13:39.721Z,100.00
2022-12-22T17:16:14.723Z,100.00
2022-12-22T17:18:42.467Z,100.00
2022-12-22T17:21:11.418Z,100.00
2022-12-22T17:23:45.391Z,100.00
2022-12-22T17:26:17.862Z,100.00
2022-12-22T17:28:47.211Z,100.00
2022-12-22T17:31:21.141Z,100.00
2022-12-22T17:33:48.879Z,100.00
2022-12-22T17:36:32.167Z,100.00
2022-12-22T17:39:01.177Z,100.00
2022-12-22T17:41:29.301Z,100.00
2022-12-22T17:43:57.071Z,100.00
2022-12-22T17:46:25.263Z,100.00
2022-12-22T17:48:53.031Z,100.00
2022-12-22T17:51:28.020Z,100.00
2022-12-22T17:53:58.781Z,100.00
2022-12-22T17:56:29.357Z,100.00
2022-12-22T17:58:57.168Z,100.00
2022-12-22T18:01:31.827Z,100.00
2022-12-22T18:04:00.014Z,100.00
2022-12-22T18:06:31.153Z,100.00
2022-12-22T18:08:59.487Z,100.00
2022-12-22T18:11:28.154Z,100.00
2022-12-22T18:13:57.444Z,100.00
2022-12-22T18:16:26.124Z,100.00
2022-12-22T18:18:53.873Z,100.00
2022-12-22T18:21:24.752Z,100.00
2022-12-22T18:23:53.124Z,100.00
2022-12-22T18:26:28.001Z,100.00
2022-12-22T18:28:56.272Z,100.00
2022-12-22T18:31:24.939Z,100.00
2022-12-22T18:33:52.939Z,100.00
2022-12-22T18:36:30.537Z,100.00
2022-12-22T18:39:00.713Z,100.00
2022-12-22T18:41:32.044Z,100.00
2022-12-22T18:43:59.811Z,100.00
2022-12-22T18:46:27.906Z,100.00
2022-12-22T18:48:59.026Z,100.00
2022-12-22T18:51:31.536Z,100.00
2022-12-22T18:53:59.229Z,100.00
2022-12-22T18:56:27.229Z,100.00
2022-12-22T18:58:54.967Z,100.00
2022-12-22T19:01:26.706Z,100.00
2022-12-22T19:03:57.520Z,100.00
2022-12-22T19:06:25.902Z,100.00
2022-12-22T19:08:53.609Z,100.00
2022-12-22T19:11:26.985Z,100.00
2022-12-22T19:13:54.942Z,100.00
2022-12-22T19:16:26.951Z,100.00
2022-12-22T19:18:54.763Z,100.00
2022-12-22T19:21:22.930Z,100.00
2022-12-22T19:23:50.805Z,100.00
2022-12-22T19:26:25.373Z,100.00
2022-12-22T19:29:00.718Z,100.00
2022-12-22T19:31:34.225Z,100.00
2022-12-22T19:34:06.667Z,100.00
2022-12-22T19:36:35.587Z,100.00
2022-12-22T19:39:05.501Z,100.00
2022-12-22T19:41:49.889Z,100.00
2022-12-22T19:44:20.396Z,100.00
2022-12-22T19:46:49.166Z,100.00
2022-12-22T19:49:23.378Z,100.00
2022-12-22T19:51:51.755Z,100.00
2022-12-22T19:54:20.013Z,100.00
2022-12-22T19:56:54.604Z,100.00
2022-12-22T19:59:39.115Z,100.00
2022-12-22T20:02:27.730Z,100.00
2022-12-22T20:04:56.577Z,100.00
2022-12-22T20:07:27.570Z,100.00
2022-12-22T20:09:55.678Z,100.00
2022-12-22T20:12:29.582Z,100.00
2022-12-22T20:14:57.605Z,100.00
2022-12-22T20:17:25.998Z,100.00
2022-12-22T20:19:53.625Z,100.00
2022-12-22T20:22:22.909Z,100.00
2022-12-22T20:24:52.403Z,100.00
2022-12-22T20:27:25.728Z,100.00
2022-12-22T20:29:53.431Z,100.00
2022-12-22T20:32:27.636Z,100.00
2022-12-22T20:34:56.664Z,100.00
2022-12-22T20:37:25.498Z,100.00
2022-12-22T20:39:53.241Z,99.90
2022-12-22T20:42:24.559Z,99.59
2022-12-22T20:45:02.619Z,99.71
2022-12-22T20:47:34.449Z,99.50
2022-12-22T20:50:02.189Z,99.32
2022-12-22T20:52:30.242Z,99.94
2022-12-22T20:54:58.427Z,99.76
2022-12-22T20:57:27.505Z,100.00
2022-12-22T20:59:56.670Z,99.56
2022-12-22T21:02:29.678Z,99.50
2022-12-22T21:04:57.715Z,99.48
2022-12-22T21:07:25.862Z,99.88
2022-12-22T21:09:53.521Z,99.96
2022-12-22T21:12:21.477Z,99.62
2022-12-22T21:14:49.585Z,98.99
2022-12-22T21:17:18.674Z,99.30
2022-12-22T21:19:46.600Z,99.36
2022-12-22T21:22:14.700Z,99.05
2022-12-22T21:24:43.909Z,99.10
2022-12-22T21:27:18.994Z,98.73
2022-12-22T21:29:47.624Z,98.81
2022-12-22T21:32:16.402Z,99.04
2022-12-22T21:34:44.116Z,99.27
2022-12-22T21:37:19.872Z,98.69
2022-12-22T21:39:47.534Z,98.90
2022-12-22T21:42:17.446Z,98.63
2022-12-22T21:44:45.359Z,98.42
2022-12-22T21:47:16.701Z,98.15
2022-12-22T21:49:44.608Z,98.35
2022-12-22T21:52:12.718Z,98.13
2022-12-22T21:54:40.467Z,98.25
2022-12-22T21:57:16.277Z,98.25
2022-12-22T21:59:43.967Z,98.46
2022-12-22T22:02:16.876Z,98.42
2022-12-22T22:04:51.796Z,98.37
2022-12-22T22:07:22.540Z,98.58
2022-12-22T22:09:50.220Z,98.67
2022-12-22T22:12:33.246Z,99.17
2022-12-22T22:15:01.931Z,99.81
2022-12-22T22:17:30.134Z,100.00
2022-12-22T22:19:57.813Z,100.00
2022-12-22T22:22:25.732Z,100.00
2022-12-22T22:24:53.443Z,100.00
2022-12-22T22:27:21.463Z,100.00
2022-12-22T22:29:49.120Z,100.00
2022-12-22T22:32:17.192Z,100.00
2022-12-22T22:34:44.909Z,100.00
2022-12-22T22:37:12.930Z,100.00
2022-12-22T22:39:40.692Z,100.00
2022-12-22T22:42:08.833Z,100.00
2022-12-22T22:44:36.769Z,100.00
2022-12-22T22:47:05.035Z,100.00
2022-12-22T22:49:32.859Z,100.00
2022-12-22T22:52:00.860Z,100.00
2022-12-22T22:54:28.494Z,100.00
2022-12-22T22:56:56.445Z,100.00
2022-12-22T22:59:24.260Z,100.00
2022-12-22T23:01:52.435Z,100.00
2022-12-22T23:04:20.240Z,100.00
2022-12-22T23:06:48.444Z,100.00
2022-12-22T23:09:16.191Z,100.00
2022-12-22T23:11:44.107Z,100.00
2022-12-22T23:14:12.002Z,100.00
2022-12-22T23:16:39.924Z,100.00
2022-12-22T23:19:07.857Z,100.00
2022-12-22T23:21:35.996Z,100.00
2022-12-22T23:24:03.823Z,100.00
2022-12-22T23:26:31.787Z,100.00
2022-12-22T23:29:03.661Z,100.00
2022-12-22T23:31:33.286Z,100.00
2022-12-22T23:34:01.424Z,100.00
2022-12-22T23:36:30.618Z,100.00
2022-12-22T23:38:58.901Z,100.00
2022-12-22T23:41:26.932Z,100.00
2022-12-22T23:43:55.315Z,100.00
2022-12-22T23:46:24.025Z,100.00
2022-12-22T23:48:53.865Z,100.00
2022-12-22T23:51:24.196Z,100.00
2022-12-22T23:53:51.868Z,100.00
2022-12-22T23:56:19.875Z,100.00
2022-12-22T23:58:52.510Z,100.00
